createdAt,value
2023-02-15T00:00:36.713Z,-1.12
2023-02-15T00:03:05.817Z,-1.11
2023-02-15T00:05:34.367Z,-1.22
2023-02-15T00:08:02.530Z,-1.25
2023-02-15T00:10:30.814Z,-1.33
2023-02-15T00:13:02.609Z,-1.32
2023-02-15T00:15:31.070Z,-1.28
2023-02-15T00:17:59.765Z,-1.28
2023-02-15T00:20:28.332Z,-1.14
2023-02-15T00:22:57.240Z,-1.22
2023-02-15T00:25:25.867Z,-1.08
2023-02-15T00:27:54.532Z,-1.33
2023-02-15T00:30:24.403Z,-1.33
2023-02-15T00:32:52.955Z,-1.38
2023-02-15T00:35:23.045Z,-1.54
2023-02-15T00:37:51.476Z,-1.40
2023-02-15T00:40:20.727Z,-1.37
2023-02-15T00:42:49.604Z,-1.52
2023-02-15T00:45:18.844Z,-1.62
2023-02-15T00:47:48.492Z,-1.44
2023-02-15T00:50:16.739Z,-1.54
2023-02-15T00:52:45.301Z,-1.63
2023-02-15T00:55:14.035Z,-1.62
2023-02-15T00:57:42.497Z,-1.75
2023-02-15T01:00:12.973Z,-1.81
2023-02-15T01:02:41.822Z,-1.78
2023-02-15T01:05:12.325Z,-1.67
2023-02-15T01:07:41.150Z,-1.61
2023-02-15T01:10:10.385Z,-1.55
2023-02-15T01:12:38.753Z,-1.44
2023-02-15T01:15:07.412Z,-1.39
2023-02-15T01:17:35.598Z,-1.43
2023-02-15T01:20:04.503Z,-1.34
2023-02-15T01:22:34.155Z,-1.27
2023-02-15T01:25:02.424Z,-1.34
2023-02-15T01:27:37.752Z,-1.32
2023-02-15T01:30:06.613Z,-1.39
2023-02-15T01:32:35.243Z,-1.43
2023-02-15T01:35:04.323Z,-1.49
2023-02-15T01:37:34.771Z,-1.59
2023-02-15T01:40:04.375Z,-1.70
2023-02-15T01:42:32.974Z,-1.51
2023-02-15T01:45:02.661Z,-1.45
2023-02-15T01:47:38.309Z,-1.45
2023-02-15T01:50:12.626Z,-1.42
2023-02-15T01:52:47.960Z,-1.43
2023-02-15T01:55:17.051Z,-1.47
2023-02-15T01:57:48.208Z,-1.49
2023-02-15T02:00:18.737Z,-1.33
2023-02-15T02:02:49.708Z,-1.35
2023-02-15T02:05:18.466Z,-1.76
2023-02-15T02:07:51.262Z,-1.54
2023-02-15T02:10:22.518Z,-1.55
2023-02-15T02:13:01.964Z,-1.61
2023-02-15T02:15:40.296Z,-1.56
2023-02-15T02:18:22.481Z,-1.60
2023-02-15T02:21:12.343Z,-1.61
2023-02-15T02:24:00.897Z,-1.54
2023-02-15T02:26:58.745Z,-1.50
2023-02-15T02:29:45.627Z,-1.60
2023-02-15T02:32:40.636Z,-1.59
2023-02-15T02:35:17.268Z,-1.71
2023-02-15T02:37:55.744Z,-1.77
2023-02-15T02:40:33.994Z,-1.82
2023-02-15T02:43:08.675Z,-1.78
2023-02-15T02:45:43.725Z,-1.79
2023-02-15T02:48:16.469Z,-1.71
2023-02-15T02:50:46.686Z,-1.82
2023-02-15T02:53:15.017Z,-1.81
2023-02-15T02:55:47.566Z,-1.79
2023-02-15T02:58:20.646Z,-1.62
2023-02-15T03:00:54.491Z,-1.74
2023-02-15T03:03:27.959Z,-1.78
2023-02-15T03:06:02.734Z,-1.91
2023-02-15T03:08:38.368Z,-2.04
2023-02-15T03:11:07.492Z,-1.95
2023-02-15T03:13:36.679Z,-1.95
2023-02-15T03:16:25.024Z,-2.06
2023-02-15T03:18:59.254Z,-2.10
2023-02-15T03:21:36.070Z,-1.97
2023-02-15T03:24:11.374Z,-2.11
2023-02-15T03:26:41.341Z,-2.19
2023-02-15T03:29:11.608Z,-2.22
2023-02-15T03:31:44.493Z,-2.21
2023-02-15T03:34:15.321Z,-2.24
2023-02-15T03:36:49.565Z,-2.23
2023-02-15T03:39:23.086Z,-2.21
2023-02-15T03:41:59.923Z,-2.01
2023-02-15T03:44:31.712Z,-1.92
2023-02-15T03:47:06.646Z,-1.95
2023-02-15T03:49:41.640Z,-2.03
2023-02-15T03:52:14.595Z,-1.91
2023-02-15T03:54:47.964Z,-1.94
2023-02-15T03:57:37.622Z,-1.96
2023-02-15T04:00:43.792Z,-1.96
2023-02-15T04:03:23.419Z,-1.94
2023-02-15T04:05:51.823Z,-2.22
2023-02-15T04:08:21.690Z,-2.25
2023-02-15T04:10:54.699Z,-2.39
2023-02-15T04:13:24.622Z,-2.41
2023-02-15T04:16:08.100Z,-2.48
2023-02-15T04:18:55.695Z,-2.44
2023-02-15T04:21:44.499Z,-2.48
2023-02-15T04:24:33.040Z,-2.51
2023-02-15T04:27:02.846Z,-2.58
2023-02-15T04:29:31.381Z,-2.54
2023-02-15T04:32:01.845Z,-2.57
2023-02-15T04:34:30.709Z,-2.51
2023-02-15T04:36:59.749Z,-2.54
2023-02-15T04:39:29.977Z,-2.59
2023-02-15T04:41:58.773Z,-2.61
2023-02-15T04:44:27.204Z,-2.53
2023-02-15T04:46:56.049Z,-2.51
2023-02-15T04:49:24.181Z,-2.48
2023-02-15T04:51:52.396Z,-2.19
2023-02-15T04:54:20.861Z,-2.16
2023-02-15T04:56:50.815Z,-1.90
2023-02-15T04:59:19.368Z,-2.09
2023-02-15T05:01:47.842Z,-1.99
2023-02-15T05:04:16.204Z,-1.87
2023-02-15T05:06:44.866Z,-2.01
2023-02-15T05:09:13.710Z,-1.99
2023-02-15T05:11:42.229Z,-2.37
2023-02-15T05:14:12.372Z,-2.45
2023-02-15T05:16:40.761Z,-2.50
2023-02-15T05:19:09.501Z,-2.58
2023-02-15T05:21:38.178Z,-2.56
2023-02-15T05:24:27.073Z,-2.74
2023-02-15T05:27:12.839Z,-2.56
2023-02-15T05:29:42.437Z,-2.47
2023-02-15T05:32:11.744Z,-2.31
2023-02-15T05:34:39.965Z,-2.68
2023-02-15T05:37:08.750Z,-2.73
2023-02-15T05:39:37.150Z,-2.68
2023-02-15T05:42:05.469Z,-2.81
2023-02-15T05:44:33.643Z,-2.75
2023-02-15T05:47:04.132Z,-2.68
2023-02-15T05:49:32.641Z,-2.63
2023-02-15T05:52:01.047Z,-2.46
2023-02-15T05:54:30.347Z,-2.23
2023-02-15T05:56:59.009Z,-2.20
2023-02-15T05:59:27.602Z,-2.40
2023-02-15T06:01:55.963Z,-2.25
2023-02-15T06:04:25.840Z,-2.26
2023-02-15T06:06:54.271Z,-2.39
2023-02-15T06:09:22.976Z,-2.61
2023-02-15T06:11:51.705Z,-2.37
2023-02-15T06:14:20.329Z,-2.51
2023-02-15T06:16:48.633Z,-2.56
2023-02-15T06:19:18.025Z,-2.74
2023-02-15T06:21:47.788Z,-2.78
2023-02-15T06:24:16.378Z,-2.78
2023-02-15T06:26:44.585Z,-2.88
2023-02-15T06:29:13.289Z,-2.84
2023-02-15T06:31:41.600Z,-2.87
2023-02-15T06:34:10.543Z,-2.75
2023-02-15T06:36:39.136Z,-2.67
2023-02-15T06:39:08.858Z,-2.63
2023-02-15T06:41:37.213Z,-2.50
2023-02-15T06:44:05.871Z,-2.48
2023-02-15T06:46:34.359Z,-2.54
2023-02-15T06:49:02.797Z,-2.75
2023-02-15T06:51:31.331Z,-2.75
2023-02-15T06:53:59.487Z,-2.67
2023-02-15T06:56:29.237Z,-2.62
2023-02-15T06:58:58.461Z,-2.68
2023-02-15T07:01:26.567Z,-2.71
2023-02-15T07:03:54.796Z,-2.77
2023-02-15T07:06:23.728Z,-2.74
2023-02-15T07:08:52.235Z,-2.76
2023-02-15T07:11:38.176Z,-2.73
2023-02-15T07:14:07.911Z,-2.80
2023-02-15T07:16:36.440Z,-2.70
2023-02-15T07:19:04.862Z,-2.61
2023-02-15T07:21:33.330Z,-2.46
2023-02-15T07:24:01.935Z,-2.51
2023-02-15T07:26:30.148Z,-2.45
2023-02-15T07:28:58.868Z,-2.45
2023-02-15T07:31:29.166Z,-2.40
2023-02-15T07:33:57.932Z,-2.35
2023-02-15T07:36:26.958Z,-2.32
2023-02-15T07:38:56.107Z,-2.25
2023-02-15T07:41:25.176Z,-2.13
2023-02-15T07:43:53.706Z,-1.99
2023-02-15T07:46:23.788Z,-1.85
2023-02-15T07:48:54.521Z,-2.03
2023-02-15T07:51:22.976Z,-2.17
2023-02-15T07:53:52.876Z,-2.21
2023-02-15T07:56:22.526Z,-2.31
2023-02-15T07:58:53.751Z,-2.23
2023-02-15T08:01:24.176Z,-2.08
2023-02-15T08:03:55.246Z,-1.95
2023-02-15T08:06:25.104Z,-1.85
2023-02-15T08:08:54.273Z,-1.79
2023-02-15T08:11:37.573Z,-1.67
2023-02-15T08:14:11.083Z,-1.75
2023-02-15T08:16:41.631Z,-1.68
2023-02-15T08:19:13.382Z,-1.63
2023-02-15T08:21:44.104Z,-1.57
2023-02-15T08:24:14.805Z,-1.40
2023-02-15T08:26:45.981Z,-1.44
2023-02-15T08:29:14.898Z,-1.45
2023-02-15T08:31:45.784Z,-1.24
2023-02-15T08:34:19.824Z,-1.05
2023-02-15T08:36:49.873Z,-0.90
2023-02-15T08:39:19.598Z,-0.98
2023-02-15T08:41:50.132Z,-1.07
2023-02-15T08:44:20.637Z,-1.09
2023-02-15T08:46:51.289Z,-1.01
2023-02-15T08:49:23.465Z,-0.96
2023-02-15T08:51:52.108Z,-1.39
2023-02-15T08:54:22.923Z,-1.51
2023-02-15T08:56:51.456Z,-1.02
2023-02-15T08:59:21.717Z,-0.93
2023-02-15T09:01:51.161Z,-0.85
2023-02-15T09:04:22.036Z,-1.05
2023-02-15T09:06:51.726Z,-0.81
2023-02-15T09:09:22.267Z,-0.55
2023-02-15T09:11:58.607Z,-0.63
2023-02-15T09:14:28.557Z,-0.61
2023-02-15T09:16:56.949Z,-0.54
2023-02-15T09:19:27.566Z,-0.47
2023-02-15T09:21:56.622Z,-0.47
2023-02-15T09:24:25.248Z,-0.70
2023-02-15T09:26:54.500Z,-0.53
2023-02-15T09:29:23.817Z,-0.70
2023-02-15T09:31:55.238Z,-1.08
2023-02-15T09:34:25.429Z,-1.00
2023-02-15T09:36:54.982Z,-0.99
2023-02-15T09:39:25.774Z,-1.12
2023-02-15T09:42:29.257Z,-1.03
2023-02-15T09:45:19.070Z,-0.82
2023-02-15T09:48:21.292Z,-0.89
2023-02-15T09:51:02.449Z,-0.70
2023-02-15T09:54:02.262Z,-0.77
2023-02-15T09:56:38.127Z,-0.69
2023-02-15T09:59:14.623Z,-0.70
2023-02-15T10:01:55.852Z,-0.50
2023-02-15T10:04:45.399Z,-0.43
2023-02-15T10:07:28.240Z,0.11
2023-02-15T10:10:11.475Z,0.37
2023-02-15T10:12:53.925Z,0.27
2023-02-15T10:15:32.642Z,0.35
2023-02-15T10:18:32.138Z,0.02
2023-02-15T10:21:10.912Z,-0.19
2023-02-15T10:24:03.140Z,-0.03
2023-02-15T10:26:40.970Z,-0.05
2023-02-15T10:29:17.818Z,-0.18
2023-02-15T10:31:52.257Z,-0.02
2023-02-15T10:34:23.029Z,-0.16
2023-02-15T10:37:27.205Z,-0.30
2023-02-15T10:40:04.559Z,0.18
2023-02-15T10:42:48.740Z,0.33
2023-02-15T10:45:22.542Z,0.18
2023-02-15T10:48:14.331Z,0.21
2023-02-15T10:50:49.873Z,0.21
2023-02-15T10:53:47.765Z,0.35
2023-02-15T10:56:23.685Z,0.29
2023-02-15T10:59:19.395Z,0.35
2023-02-15T11:01:55.769Z,0.51
2023-02-15T11:04:42.991Z,0.87
2023-02-15T11:07:18.150Z,1.08
2023-02-15T11:09:51.714Z,1.18
2023-02-15T11:12:25.440Z,1.23
2023-02-15T11:15:02.033Z,1.34
2023-02-15T11:17:39.727Z,1.12
2023-02-15T11:20:21.892Z,0.90
2023-02-15T11:22:56.255Z,0.58
2023-02-15T11:25:32.971Z,0.80
2023-02-15T11:28:02.996Z,0.97
2023-02-15T11:30:46.391Z,0.93
2023-02-15T11:33:23.704Z,1.11
2023-02-15T11:35:56.487Z,1.36
2023-02-15T11:38:30.088Z,1.43
2023-02-15T11:41:05.129Z,1.44
2023-02-15T11:43:40.460Z,1.64
2023-02-15T11:46:16.463Z,2.02
2023-02-15T11:48:45.433Z,2.15
2023-02-15T11:51:17.843Z,2.26
2023-02-15T11:53:47.034Z,2.19
2023-02-15T11:56:17.981Z,2.16
2023-02-15T11:58:53.287Z,2.05
2023-02-15T12:01:30.074Z,1.80
2023-02-15T12:04:03.928Z,2.21
2023-02-15T12:06:37.091Z,2.34
2023-02-15T12:09:12.101Z,2.29
2023-02-15T12:11:42.754Z,2.67
2023-02-15T12:14:16.849Z,2.76
2023-02-15T12:16:49.532Z,2.52
2023-02-15T12:19:41.182Z,2.36
2023-02-15T12:22:26.212Z,2.28
2023-02-15T12:24:58.302Z,2.24
2023-02-15T12:27:29.646Z,1.95
2023-02-15T12:30:03.710Z,1.75
2023-02-15T12:32:38.487Z,1.64
2023-02-15T12:35:16.397Z,1.54
2023-02-15T12:37:56.660Z,1.44
2023-02-15T12:40:31.396Z,1.45
2023-02-15T12:43:00.376Z,1.48
2023-02-15T12:45:30.255Z,1.54
2023-02-15T12:48:18.101Z,1.63
2023-02-15T12:50:54.782Z,1.47
2023-02-15T12:53:25.535Z,1.49
2023-02-15T12:55:57.169Z,1.59
2023-02-15T12:58:28.330Z,1.55
2023-02-15T13:01:22.620Z,1.66
2023-02-15T13:04:01.554Z,1.79
2023-02-15T13:06:36.383Z,1.84
2023-02-15T13:09:15.796Z,1.83
2023-02-15T13:11:46.525Z,1.84
2023-02-15T13:14:20.957Z,1.84
2023-02-15T13:16:51.622Z,1.93
2023-02-15T13:19:30.542Z,1.91
2023-02-15T13:22:00.631Z,1.84
2023-02-15T13:24:33.545Z,1.99
2023-02-15T13:27:15.067Z,2.00
2023-02-15T13:29:49.255Z,2.17
2023-02-15T13:32:33.627Z,2.24
2023-02-15T13:35:06.683Z,2.23
2023-02-15T13:37:48.340Z,2.29
2023-02-15T13:40:25.017Z,2.37
2023-02-15T13:42:59.103Z,2.42
2023-02-15T13:45:38.976Z,2.39
2023-02-15T13:48:17.953Z,2.45
2023-02-15T13:51:08.733Z,2.45
2023-02-15T13:53:57.109Z,2.54
2023-02-15T13:56:37.101Z,2.57
2023-02-15T13:59:20.227Z,2.59
2023-02-15T14:01:56.673Z,2.55
2023-02-15T14:04:57.798Z,2.68
2023-02-15T14:07:52.793Z,2.74
2023-02-15T14:10:34.611Z,2.73
2023-02-15T14:13:37.477Z,2.70
2023-02-15T14:16:13.370Z,2.83
2023-02-15T14:18:47.060Z,2.91
2023-02-15T14:21:21.954Z,2.85
2023-02-15T14:24:04.474Z,2.79
2023-02-15T14:26:44.097Z,2.89
2023-02-15T14:29:23.316Z,2.92
2023-02-15T14:31:56.427Z,2.94
2023-02-15T14:34:28.953Z,3.05
2023-02-15T14:36:59.466Z,3.03
2023-02-15T14:40:02.327Z,2.97
2023-02-15T14:42:36.741Z,2.94
2023-02-15T14:45:17.621Z,2.95
2023-02-15T14:47:51.215Z,2.96
2023-02-15T14:50:44.084Z,2.96
2023-02-15T14:53:39.478Z,2.89
2023-02-15T14:56:20.658Z,2.90
2023-02-15T14:59:18.528Z,2.92
2023-02-15T15:01:58.725Z,2.82
2023-02-15T15:04:33.962Z,2.76
2023-02-15T15:07:18.005Z,2.78
2023-02-15T15:09:49.382Z,2.76
2023-02-15T15:12:47.358Z,2.80
2023-02-15T15:15:35.127Z,2.76
2023-02-15T15:18:07.378Z,2.70
2023-02-15T15:20:51.731Z,2.63
2023-02-15T15:23:53.395Z,2.62
2023-02-15T15:26:28.297Z,2.59
2023-02-15T15:29:04.509Z,2.57
2023-02-15T15:31:43.569Z,2.50
2023-02-15T15:34:49.990Z,2.46
2023-02-15T15:37:45.505Z,2.33
2023-02-15T15:40:44.338Z,2.25
2023-02-15T15:44:14.233Z,2.13
2023-02-15T15:47:10.724Z,2.09
2023-02-15T15:49:41.909Z,2.08
2023-02-15T15:52:17.935Z,2.05
2023-02-15T15:54:48.953Z,1.99
2023-02-15T15:57:24.573Z,1.86
2023-02-15T15:59:54.780Z,1.80
2023-02-15T16:02:25.530Z,1.70
2023-02-15T16:04:53.837Z,1.65
2023-02-15T16:07:29.340Z,1.63
2023-02-15T16:10:00.048Z,1.57
2023-02-15T16:12:30.965Z,1.53
2023-02-15T16:14:59.959Z,1.41
2023-02-15T16:17:36.111Z,1.25
2023-02-15T16:20:19.693Z,1.23
2023-02-15T16:22:50.948Z,1.18
2023-02-15T16:25:40.781Z,1.04
2023-02-15T16:28:14.116Z,0.96
2023-02-15T16:30:45.772Z,0.75
2023-02-15T16:33:17.538Z,0.68
2023-02-15T16:35:57.585Z,0.58
2023-02-15T16:38:58.612Z,0.48
2023-02-15T16:41:29.308Z,0.45
2023-02-15T16:44:02.338Z,0.41
2023-02-15T16:46:37.114Z,0.30
2023-02-15T16:49:16.836Z,0.24
2023-02-15T16:51:46.929Z,0.10
2023-02-15T16:54:21.868Z,0.04
2023-02-15T16:56:50.702Z,-0.05
2023-02-15T16:59:38.037Z,-0.16
2023-02-15T17:02:09.765Z,-0.15
2023-02-15T17:04:41.417Z,-0.13
2023-02-15T17:07:20.141Z,-0.24
2023-02-15T17:09:54.244Z,-0.28
2023-02-15T17:12:51.683Z,-0.35
2023-02-15T17:15:39.393Z,-0.44
2023-02-15T17:18:13.804Z,-0.44
2023-02-15T17:20:45.488Z,-0.57
2023-02-15T17:23:33.734Z,-0.63
2023-02-15T17:26:13.372Z,-0.83
2023-02-15T17:28:52.779Z,-0.87
2023-02-15T17:31:23.763Z,-0.99
2023-02-15T17:33:57.943Z,-1.01
2023-02-15T17:36:30.685Z,-1.03
2023-02-15T17:39:24.424Z,-1.09
2023-02-15T17:41:56.800Z,-1.14
2023-02-15T17:44:25.385Z,-1.23
2023-02-15T17:46:54.058Z,-1.28
2023-02-15T17:49:35.025Z,-1.30
2023-02-15T17:52:07.276Z,-1.29
2023-02-15T17:54:53.289Z,-1.40
2023-02-15T17:57:24.883Z,-1.43
2023-02-15T18:00:11.075Z,-1.44
2023-02-15T18:03:04.697Z,-1.45
2023-02-15T18:05:59.175Z,-1.46
2023-02-15T18:08:48.158Z,-1.48
2023-02-15T18:11:33.845Z,-1.48
2023-02-15T18:14:04.117Z,-1.43
2023-02-15T18:16:36.820Z,-1.45
2023-02-15T18:19:07.462Z,-1.37
2023-02-15T18:21:36.963Z,-1.28
2023-02-15T18:24:08.415Z,-1.30
2023-02-15T18:26:39.145Z,-1.30
2023-02-15T18:29:10.965Z,-1.21
2023-02-15T18:31:39.910Z,-1.27
2023-02-15T18:34:26.625Z,-1.26
2023-02-15T18:36:55.696Z,-1.35
2023-02-15T18:39:36.618Z,-1.47
2023-02-15T18:42:05.903Z,-1.36
2023-02-15T18:44:35.280Z,-1.26
2023-02-15T18:47:04.102Z,-1.23
2023-02-15T18:49:33.422Z,-1.21
2023-02-15T18:52:05.781Z,-1.22
2023-02-15T18:54:37.607Z,-1.10
2023-02-15T18:57:09.136Z,-1.01
2023-02-15T18:59:37.489Z,-1.02
2023-02-15T19:02:10.888Z,-0.99
2023-02-15T19:04:40.774Z,-1.06
2023-02-15T19:07:19.287Z,-1.10
2023-02-15T19:09:56.059Z,-1.00
2023-02-15T19:12:24.976Z,-1.00
2023-02-15T19:14:56.136Z,-1.01
2023-02-15T19:17:26.530Z,-1.00
2023-02-15T19:19:55.067Z,-1.06
2023-02-15T19:22:28.519Z,-0.95
2023-02-15T19:25:01.470Z,-0.92
2023-02-15T19:27:32.873Z,-1.02
2023-02-15T19:30:03.459Z,-0.91
2023-02-15T19:32:32.443Z,-0.90
2023-02-15T19:35:00.701Z,-0.95
2023-02-15T19:37:36.261Z,-1.01
2023-02-15T19:40:07.410Z,-0.95
2023-02-15T19:42:36.487Z,-1.03
2023-02-15T19:45:14.292Z,-0.99
2023-02-15T19:47:43.500Z,-1.06
2023-02-15T19:50:16.909Z,-1.00
2023-02-15T19:52:46.718Z,-0.96
2023-02-15T19:55:27.739Z,-0.99
2023-02-15T19:57:58.636Z,-1.07
2023-02-15T20:00:29.885Z,-1.07
2023-02-15T20:02:59.690Z,-1.17
2023-02-15T20:05:29.680Z,-1.06
2023-02-15T20:07:59.419Z,-1.04
2023-02-15T20:10:31.438Z,-1.03
2023-02-15T20:13:00.563Z,-1.11
2023-02-15T20:15:31.073Z,-1.11
2023-02-15T20:18:04.407Z,-1.11
2023-02-15T20:20:36.691Z,-1.14
2023-02-15T20:23:05.601Z,-1.06
2023-02-15T20:25:35.707Z,-1.14
2023-02-15T20:28:04.396Z,-1.10
2023-02-15T20:30:41.878Z,-1.21
2023-02-15T20:33:11.414Z,-1.35
2023-02-15T20:35:41.094Z,-1.38
2023-02-15T20:38:18.734Z,-1.35
2023-02-15T20:41:06.644Z,-1.24
2023-02-15T20:43:36.463Z,-1.30
2023-02-15T20:46:05.954Z,-1.36
2023-02-15T20:48:35.367Z,-1.31
2023-02-15T20:51:05.478Z,-1.35
2023-02-15T20:53:34.498Z,-1.45
2023-02-15T20:56:05.346Z,-1.33
2023-02-15T20:58:36.258Z,-1.31
2023-02-15T21:01:05.183Z,-1.40
2023-02-15T21:03:34.926Z,-1.49
2023-02-15T21:06:03.781Z,-1.47
2023-02-15T21:08:33.570Z,-1.42
2023-02-15T21:11:04.205Z,-1.48
2023-02-15T21:13:35.500Z,-1.36
2023-02-15T21:16:04.739Z,-1.23
2023-02-15T21:18:35.575Z,-1.39
2023-02-15T21:21:08.541Z,-1.42
2023-02-15T21:23:40.061Z,-1.41
2023-02-15T21:26:19.525Z,-1.46
2023-02-15T21:28:49.498Z,-1.52
2023-02-15T21:31:20.893Z,-1.57
2023-02-15T21:33:49.971Z,-1.64
2023-02-15T21:36:21.110Z,-1.65
2023-02-15T21:38:50.281Z,-1.56
2023-02-15T21:41:38.934Z,-1.56
2023-02-15T21:44:35.044Z,-1.63
2023-02-15T21:47:22.804Z,-1.68
2023-02-15T21:49:51.549Z,-1.76
2023-02-15T21:52:23.050Z,-1.79
2023-02-15T21:54:51.725Z,-1.84
2023-02-15T21:57:22.504Z,-1.81
2023-02-15T21:59:51.958Z,-1.94
2023-02-15T22:02:29.685Z,-1.84
2023-02-15T22:04:59.869Z,-1.86
2023-02-15T22:07:28.439Z,-1.82
2023-02-15T22:09:57.594Z,-1.78
2023-02-15T22:12:28.392Z,-1.81
2023-02-15T22:14:57.289Z,-1.79
2023-02-15T22:17:29.338Z,-1.66
2023-02-15T22:19:59.390Z,-1.64
2023-02-15T22:22:30.403Z,-1.77
2023-02-15T22:24:59.259Z,-1.79
2023-02-15T22:27:31.937Z,-1.86
2023-02-15T22:30:00.802Z,-1.82
2023-02-15T22:32:29.629Z,-1.80
2023-02-15T22:34:58.830Z,-1.71
2023-02-15T22:37:27.510Z,-1.58
2023-02-15T22:39:56.925Z,-1.58
2023-02-15T22:42:30.397Z,-1.59
2023-02-15T22:44:59.998Z,-1.56
2023-02-15T22:47:32.410Z,-1.54
2023-02-15T22:50:01.270Z,-1.55
2023-02-15T22:52:29.587Z,-1.68
2023-02-15T22:54:58.339Z,-1.70
2023-02-15T22:57:33.853Z,-1.74
2023-02-15T23:00:03.020Z,-1.86
2023-02-15T23:02:32.086Z,-1.95
2023-02-15T23:05:00.897Z,-1.90
2023-02-15T23:07:31.210Z,-1.94
2023-02-15T23:09:59.734Z,-1.89
2023-02-15T23:12:50.640Z,-1.87
2023-02-15T23:15:20.761Z,-1.95
2023-02-15T23:17:49.421Z,-1.90
2023-02-15T23:20:18.221Z,-1.85
2023-02-15T23:22:46.799Z,-1.87
2023-02-15T23:25:15.847Z,-1.95
2023-02-15T23:28:01.598Z,-1.88
2023-02-15T23:30:32.124Z,-1.77
2023-02-15T23:33:00.687Z,-1.81
2023-02-15T23:35:29.926Z,-1.78
2023-02-15T23:37:58.640Z,-1.79
2023-02-15T23:40:44.313Z,-1.94
2023-02-15T23:43:24.651Z,-2.08
2023-02-15T23:45:55.065Z,-2.14
2023-02-15T23:48:32.957Z,-2.14
2023-02-15T23:51:02.730Z,-2.21
2023-02-15T23:53:32.026Z,-2.28
2023-02-15T23:56:01.232Z,-2.24
2023-02-15T23:58:42.900Z,-2.23
